Time;durP1;ratioP1;P1;durP2;ratioP2;P2;SDS_P1;SDS_P2;PMS_P1;PMS_P2;Temp;Humidity;BMP_temperature;BMP_pressure;BME280_temperature;BME280_humidity;BME280_pressure;Samples;Min_cycle;Max_cycle;Signal;HPM_P1;HPM_P2
2021/08/30 00:01:49;;;;;;;1.20;1.02;;;17.70;99.90;;;;;;6154439;23;20336;-82
2021/08/30 00:04:15;;;;;;;1.05;0.80;;;17.60;99.90;;;;;;6156257;23;20117;-85
2021/08/30 00:06:41;;;;;;;1.10;1.00;;;17.60;99.90;;;;;;6130106;23;20025;-87
2021/08/30 00:09:08;;;;;;;1.20;1.08;;;17.50;99.90;;;;;;6156211;23;20421;-87
2021/08/30 00:11:34;;;;;;;2.33;0.70;;;17.50;99.90;;;;;;6154564;23;20369;-84
2021/08/30 00:14:00;;;;;;;2.25;0.90;;;17.40;99.90;;;;;;6156106;23;20004;-88
2021/08/30 00:16:25;;;;;;;1.30;1.15;;;17.40;99.90;;;;;;6156468;23;20334;-84
2021/08/30 00:18:51;;;;;;;0.60;0.60;;;17.30;99.90;;;;;;6156138;23;20013;-88
2021/08/30 00:21:17;;;;;;;1.00;0.80;;;17.20;99.90;;;;;;6155883;23;20096;-85
2021/08/30 00:23:43;;;;;;;1.15;1.00;;;17.20;99.90;;;;;;6155782;23;20005;-88
2021/08/30 00:26:09;;;;;;;1.38;1.08;;;17.20;99.90;;;;;;6129788;23;20002;-86
2021/08/30 00:28:34;;;;;;;1.02;0.90;;;17.10;99.90;;;;;;6156236;23;20001;-87
2021/08/30 00:31:00;;;;;;;4.38;1.10;;;17.00;99.90;;;;;;6156095;23;20025;-89
2021/08/30 00:33:26;;;;;;;0.90;0.73;;;17.00;99.90;;;;;;6155905;23;20044;-88
2021/08/30 00:35:52;;;;;;;1.30;0.90;;;17.00;99.90;;;;;;6155937;23;20371;-84
2021/08/30 00:38:17;;;;;;;2.05;1.13;;;16.90;99.90;;;;;;6154393;23;20052;-83
2021/08/30 00:40:43;;;;;;;4.22;1.13;;;16.90;99.90;;;;;;6155587;23;20002;-88
2021/08/30 00:43:09;;;;;;;3.38;1.00;;;16.90;99.90;;;;;;6129859;23;20009;-90
2021/08/30 00:45:35;;;;;;;1.10;1.00;;;16.90;99.90;;;;;;6155924;23;20009;-89
2021/08/30 00:48:02;;;;;;;2.00;1.10;;;17.00;99.90;;;;;;6155615;23;20434;-89
2021/08/30 00:50:28;;;;;;;8.63;1.10;;;17.00;99.90;;;;;;6155702;23;19998;-85
2021/08/30 00:52:54;;;;;;;0.88;0.88;;;16.90;99.90;;;;;;6155944;23;20025;-88
2021/08/30 00:55:20;;;;;;;3.35;1.10;;;16.80;99.90;;;;;;6129579;23;20002;-89
2021/08/30 00:57:46;;;;;;;1.08;0.93;;;16.80;99.90;;;;;;6155518;23;20041;-88
2021/08/30 01:00:13;;;;;;;5.82;0.88;;;16.80;99.90;;;;;;6155595;23;20013;-85
2021/08/30 01:02:40;;;;;;;1.42;0.85;;;16.80;99.90;;;;;;6156508;23;20064;-75
2021/08/30 01:05:07;;;;;;;3.05;1.08;;;16.80;99.90;;;;;;6156176;23;20010;-75
2021/08/30 01:08:10;;;;;;;1.63;1.17;;;16.70;99.90;;;;;;6155560;23;20001;-75
2021/08/30 01:10:36;;;;;;;1.20;0.80;;;16.70;99.90;;;;;;6155358;23;19997;-74
2021/08/30 01:13:07;;;;;;;3.50;1.42;;;16.70;99.90;;;;;;6155612;23;20012;-75
2021/08/30 01:15:43;;;;;;;5.68;1.27;;;16.70;99.90;;;;;;6155869;23;20056;-75
2021/08/30 01:18:27;;;;;;;3.78;0.93;;;16.70;99.90;;;;;;6155544;23;20029;-74
2021/08/30 01:21:18;;;;;;;2.80;0.85;;;16.70;99.90;;;;;;6155791;23;20009;-74
2021/08/30 01:23:49;;;;;;;0.93;0.82;;;16.60;99.90;;;;;;6155699;23;20305;-75
2021/08/30 01:26:16;;;;;;;0.95;0.77;;;16.60;99.90;;;;;;6155737;23;20002;-76
2021/08/30 01:28:52;;;;;;;0.77;0.77;;;16.60;99.90;;;;;;6155909;23;20028;-74
2021/08/30 01:31:27;;;;;;;1.05;0.82;;;16.60;99.90;;;;;;6155674;23;19997;-76
2021/08/30 01:33:52;;;;;;;0.60;0.60;;;16.60;99.90;;;;;;6156247;23;20507;-75
2021/08/30 01:36:19;;;;;;;4.35;0.90;;;16.60;99.90;;;;;;6157846;23;20021;-76
2021/08/30 01:38:47;;;;;;;1.15;0.98;;;16.60;99.90;;;;;;6130826;23;20104;-77
2021/08/30 01:41:16;;;;;;;0.80;0.80;;;16.60;99.90;;;;;;6156656;23;20136;-76
2021/08/30 01:43:47;;;;;;;1.13;0.75;;;16.60;99.90;;;;;;6156458;23;20056;-76
2021/08/30 01:46:15;;;;;;;0.88;0.70;;;16.60;99.90;;;;;;6156416;23;20012;-77
2021/08/30 01:48:49;;;;;;;0.98;0.70;;;16.60;99.90;;;;;;6156484;23;19997;-72
2021/08/30 01:51:21;;;;;;;2.83;1.52;;;16.60;99.90;;;;;;6156382;23;20012;-76
2021/08/30 01:53:47;;;;;;;6.22;0.80;;;16.70;99.90;;;;;;6156534;23;20104;-77
2021/08/30 01:56:16;;;;;;;1.15;0.88;;;16.60;99.90;;;;;;6156504;23;20089;-77
2021/08/30 02:01:29;;;;;;;0.75;0.70;;;16.60;99.90;;;;;;6156048;23;20028;-74
2021/08/30 02:03:54;;;;;;;0.57;0.57;;;16.70;99.90;;;;;;6156459;23;20009;-81
2021/08/30 02:06:20;;;;;;;2.63;0.80;;;16.50;99.90;;;;;;6156389;23;20002;-77
2021/08/30 02:08:45;;;;;;;1.90;0.77;;;16.50;99.90;;;;;;6156263;23;20116;-77
2021/08/30 02:11:14;;;;;;;1.00;0.90;;;16.50;99.90;;;;;;6156204;23;20056;-76
2021/08/30 02:13:40;;;;;;;0.90;0.75;;;16.50;99.90;;;;;;6156350;23;20052;-75
2021/08/30 02:16:06;;;;;;;0.90;0.85;;;16.40;99.90;;;;;;6156109;23;20025;-74
2021/08/30 02:18:45;;;;;;;1.42;0.90;;;16.40;99.90;;;;;;6156152;23;20017;-77
2021/08/30 02:21:23;;;;;;;1.10;0.80;;;16.30;99.90;;;;;;6156241;23;20006;-73
2021/08/30 02:24:36;;;;;;;0.93;0.88;;;16.30;99.90;;;;;;6156164;23;20006;-74
2021/08/30 02:27:14;;;;;;;1.30;1.00;;;16.30;99.90;;;;;;6143149;23;20006;-75
2021/08/30 02:29:48;;;;;;;3.50;1.00;;;16.20;99.90;;;;;;6156145;23;20076;-74
2021/08/30 02:32:15;;;;;;;1.70;0.90;;;16.20;99.90;;;;;;6155943;23;20006;-74
2021/08/30 02:34:53;;;;;;;1.77;1.10;;;16.20;99.90;;;;;;6156046;23;19998;-76
2021/08/30 02:37:21;;;;;;;3.88;0.80;;;16.20;99.90;;;;;;6155768;23;20013;-74
2021/08/30 02:39:49;;;;;;;1.60;1.05;;;16.20;99.90;;;;;;6156076;23;20044;-74
2021/08/30 02:42:15;;;;;;;0.80;0.73;;;16.30;99.90;;;;;;6155766;23;20081;-73
2021/08/30 02:44:46;;;;;;;1.67;0.88;;;16.30;99.90;;;;;;6155758;23;20001;-75
2021/08/30 02:47:13;;;;;;;2.83;0.90;;;16.30;99.90;;;;;;6156282;23;20001;-74
2021/08/30 02:49:41;;;;;;;2.05;1.13;;;16.30;99.90;;;;;;6156690;23;20001;-74
2021/08/30 02:52:09;;;;;;;0.93;0.93;;;16.40;99.90;;;;;;6156901;23;20011;-74
2021/08/30 02:54:36;;;;;;;1.13;0.90;;;16.40;99.90;;;;;;6156545;23;20009;-73
2021/08/30 02:57:04;;;;;;;1.75;1.00;;;16.40;99.90;;;;;;6156892;23;20428;-76
2021/08/30 02:59:30;;;;;;;2.03;0.90;;;16.40;99.90;;;;;;6156313;23;20009;-74
2021/08/30 03:01:58;;;;;;;5.78;0.90;;;16.40;99.90;;;;;;6156717;23;20076;-74
2021/08/30 03:04:24;;;;;;;1.65;0.80;;;16.40;99.90;;;;;;6130549;23;20013;-75
2021/08/30 03:06:50;;;;;;;8.38;1.27;;;16.40;99.90;;;;;;6156728;23;20076;-78
2021/08/30 03:09:16;;;;;;;1.55;1.10;;;16.40;99.90;;;;;;6156508;23;20394;-75
2021/08/30 03:11:45;;;;;;;0.88;0.88;;;16.40;99.90;;;;;;6156483;23;20032;-74
2021/08/30 03:14:12;;;;;;;1.58;0.93;;;16.40;99.90;;;;;;6156617;23;19998;-76
2021/08/30 03:16:41;;;;;;;2.03;1.13;;;16.40;99.90;;;;;;6156442;23;20360;-77
2021/08/30 03:19:08;;;;;;;1.23;1.02;;;16.40;99.90;;;;;;6156151;23;20037;-77
2021/08/30 03:21:34;;;;;;;1.58;0.93;;;16.40;99.90;;;;;;6156507;23;20009;-75
2021/08/30 03:24:01;;;;;;;0.68;0.68;;;16.40;99.90;;;;;;6156607;23;19998;-77
2021/08/30 03:26:27;;;;;;;0.95;0.77;;;16.40;99.90;;;;;;6156087;23;20076;-76
2021/08/30 03:28:54;;;;;;;0.93;0.93;;;16.40;99.90;;;;;;6156187;23;20448;-76
2021/08/30 03:31:20;;;;;;;1.38;1.10;;;16.50;99.90;;;;;;6156194;23;20082;-74
2021/08/30 03:33:47;;;;;;;2.10;1.00;;;16.40;99.90;;;;;;6156323;23;20433;-74
2021/08/30 03:36:13;;;;;;;0.90;0.80;;;16.40;99.90;;;;;;6154829;23;20033;-75
2021/08/30 03:38:40;;;;;;;4.22;1.00;;;16.50;99.90;;;;;;6156206;23;20013;-74
2021/08/30 03:41:06;;;;;;;1.10;0.98;;;16.50;99.90;;;;;;6155999;23;19998;-75
2021/08/30 03:43:33;;;;;;;0.77;0.77;;;16.50;99.90;;;;;;6156383;23;20009;-77
2021/08/30 03:45:59;;;;;;;0.80;0.80;;;16.50;99.90;;;;;;6156347;23;20023;-73
2021/08/30 03:48:25;;;;;;;1.92;1.13;;;16.60;99.90;;;;;;6156099;23;20029;-78
2021/08/30 03:50:53;;;;;;;0.90;0.90;;;16.60;99.90;;;;;;6156176;23;19997;-74
2021/08/30 03:53:21;;;;;;;0.95;0.88;;;16.70;99.90;;;;;;6155892;23;20005;-74
2021/08/30 03:55:47;;;;;;;3.92;0.88;;;16.70;99.90;;;;;;6155716;23;20439;-73
2021/08/30 03:58:16;;;;;;;0.63;0.63;;;16.70;99.90;;;;;;6130520;23;20352;-75
2021/08/30 04:00:42;;;;;;;1.17;0.90;;;16.70;99.90;;;;;;6155836;23;20344;-77
2021/08/30 04:03:11;;;;;;;1.05;1.00;;;16.60;99.90;;;;;;6156550;23;20037;-75
2021/08/30 04:05:38;;;;;;;1.38;0.90;;;16.60;99.90;;;;;;6155878;23;20005;-74
2021/08/30 04:08:04;;;;;;;2.35;1.08;;;16.60;99.90;;;;;;6129929;23;20006;-73
2021/08/30 04:10:30;;;;;;;0.90;0.80;;;16.60;99.90;;;;;;6155875;23;20001;-74
2021/08/30 04:12:57;;;;;;;1.30;0.80;;;16.60;99.90;;;;;;6156044;23;20100;-74
2021/08/30 04:15:23;;;;;;;3.72;0.85;;;16.60;99.90;;;;;;6155993;23;19998;-73
2021/08/30 04:17:49;;;;;;;2.28;1.23;;;16.60;99.90;;;;;;6155890;23;20073;-74
2021/08/30 04:20:15;;;;;;;1.17;1.08;;;16.60;99.90;;;;;;6155771;23;20005;-75
2021/08/30 04:22:41;;;;;;;2.22;1.05;;;16.60;99.90;;;;;;6155750;23;20070;-75
2021/08/30 04:25:07;;;;;;;2.70;0.73;;;16.60;99.90;;;;;;6155832;23;20052;-77
2021/08/30 04:27:32;;;;;;;1.00;1.00;;;16.70;99.90;;;;;;6155952;23;20009;-76
2021/08/30 04:29:58;;;;;;;10.43;1.20;;;16.70;99.90;;;;;;6129561;23;20352;-77
2021/08/30 04:32:25;;;;;;;2.58;1.00;;;16.70;99.90;;;;;;6155739;23;20029;-74
2021/08/30 04:34:50;;;;;;;2.38;0.88;;;16.70;99.90;;;;;;6155958;23;20012;-74
2021/08/30 04:37:16;;;;;;;1.13;0.98;;;16.70;99.90;;;;;;6155787;23;20372;-74
2021/08/30 04:39:43;;;;;;;3.40;1.27;;;16.70;99.90;;;;;;6155757;23;20133;-75
2021/08/30 04:42:09;;;;;;;2.35;1.48;;;16.80;99.90;;;;;;6154013;23;20002;-74
2021/08/30 04:44:34;;;;;;;3.47;1.15;;;16.80;99.90;;;;;;6155991;23;20090;-75
2021/08/30 04:47:03;;;;;;;2.60;1.08;;;16.80;99.90;;;;;;6155798;23;20425;-75
2021/08/30 04:49:29;;;;;;;1.75;1.05;;;16.90;99.90;;;;;;6155874;23;20068;-75
2021/08/30 04:51:55;;;;;;;3.95;1.52;;;16.90;99.90;;;;;;6156013;23;20417;-77
2021/08/30 04:54:21;;;;;;;17.60;1.45;;;17.00;99.90;;;;;;6155815;23;20002;-75
2021/08/30 04:56:47;;;;;;;3.42;1.27;;;17.00;99.90;;;;;;6155701;23;20436;-75
2021/08/30 04:59:13;;;;;;;3.10;1.13;;;17.00;99.90;;;;;;6155515;23;20010;-75
2021/08/30 05:01:39;;;;;;;11.32;1.60;;;17.00;99.90;;;;;;6155553;23;20013;-74
2021/08/30 05:04:04;;;;;;;1.90;1.30;;;17.20;99.90;;;;;;6155654;23;20080;-76
2021/08/30 05:06:30;;;;;;;4.32;1.52;;;17.30;99.90;;;;;;6155707;23;19998;-76
2021/08/30 05:08:56;;;;;;;7.38;1.50;;;17.40;99.90;;;;;;6157529;23;20009;-74
2021/08/30 05:11:22;;;;;;;2.40;1.25;;;17.40;99.90;;;;;;6157659;23;20008;-75
2021/08/30 05:13:47;;;;;;;3.00;1.50;;;17.40;99.90;;;;;;6157908;23;20302;-75
2021/08/30 05:16:13;;;;;;;8.55;1.30;;;17.50;99.90;;;;;;6157239;23;20416;-75
2021/08/30 05:18:40;;;;;;;6.20;1.58;;;17.40;99.90;;;;;;6157140;23;20017;-74
2021/08/30 05:21:07;;;;;;;5.07;1.45;;;17.40;99.90;;;;;;6158078;23;20032;-77
2021/08/30 05:23:33;;;;;;;9.07;1.92;;;17.40;99.90;;;;;;6158150;23;20032;-74
2021/08/30 05:25:58;;;;;;;3.80;1.27;;;17.40;99.90;;;;;;6157064;23;20002;-75
2021/08/30 05:28:24;;;;;;;15.13;1.45;;;17.40;99.90;;;;;;6157406;23;20081;-77
2021/08/30 05:30:50;;;;;;;6.75;1.30;;;17.50;99.90;;;;;;6157792;23;20006;-75
2021/08/30 05:33:16;;;;;;;5.68;1.45;;;17.60;99.90;;;;;;6157407;23;20080;-75
2021/08/30 05:35:41;;;;;;;12.35;1.60;;;17.60;99.90;;;;;;6156947;23;20368;-77
2021/08/30 05:38:07;;;;;;;4.40;1.55;;;17.70;99.90;;;;;;6156968;23;20051;-74
2021/08/30 05:40:33;;;;;;;5.88;1.33;;;17.90;99.90;;;;;;6157316;23;20073;-75
2021/08/30 05:42:59;;;;;;;7.18;1.27;;;18.10;99.90;;;;;;6156669;23;20080;-74
2021/08/30 05:45:25;;;;;;;5.50;1.40;;;18.40;99.90;;;;;;6157091;23;20033;-77
2021/08/30 05:47:51;;;;;;;6.93;1.60;;;18.70;99.90;;;;;;6157180;23;20001;-75
2021/08/30 05:50:17;;;;;;;4.80;1.58;;;20.10;99.90;;;;;;6156951;23;19997;-75
2021/08/30 05:52:42;;;;;;;4.75;1.73;;;22.50;99.90;;;;;;6157266;23;20080;-75
2021/08/30 05:55:08;;;;;;;8.27;1.60;;;24.70;99.90;;;;;;6157494;23;20375;-75
2021/08/30 05:57:34;;;;;;;10.82;1.52;;;26.60;96.30;;;;;;6157178;23;20564;-76
2021/08/30 06:00:00;;;;;;;6.95;1.38;;;28.20;92.90;;;;;;6157158;23;20041;-76
2021/08/30 06:02:25;;;;;;;2.42;1.20;;;29.20;89.70;;;;;;6156913;23;20028;-75
2021/08/30 06:04:51;;;;;;;4.75;1.00;;;29.60;86.80;;;;;;6131040;23;20099;-74
2021/08/30 06:07:17;;;;;;;2.78;1.17;;;30.30;84.80;;;;;;6157729;23;20417;-77
2021/08/30 06:09:42;;;;;;;1.95;1.00;;;30.70;83.10;;;;;;6157116;23;20486;-78
2021/08/30 06:12:08;;;;;;;1.23;0.77;;;30.70;81.00;;;;;;6157106;23;20393;-75
2021/08/30 06:14:34;;;;;;;6.18;1.02;;;29.50;82.00;;;;;;6157561;23;20005;-76
2021/08/30 06:17:00;;;;;;;2.42;1.02;;;27.70;84.60;;;;;;6157266;23;20025;-75
2021/08/30 06:19:25;;;;;;;3.17;0.95;;;26.00;88.10;;;;;;6156715;23;20040;-75
2021/08/30 06:21:51;;;;;;;3.42;1.13;;;24.50;90.50;;;;;;6157188;23;20376;-75
2021/08/30 06:24:17;;;;;;;3.47;0.90;;;23.60;92.10;;;;;;6157080;23;20054;-76
2021/08/30 06:26:42;;;;;;;4.00;1.42;;;22.80;93.00;;;;;;6156984;23;19998;-75
2021/08/30 06:29:08;;;;;;;8.10;1.30;;;22.30;93.80;;;;;;6130783;23;20009;-76
2021/08/30 06:31:34;;;;;;;7.65;1.55;;;23.30;94.00;;;;;;6157450;23;20076;-77
2021/08/30 06:33:59;;;;;;;4.38;0.80;;;25.40;92.10;;;;;;6156972;23;20324;-75
2021/08/30 06:36:25;;;;;;;3.35;1.00;;;27.30;88.40;;;;;;6156816;23;20052;-75
2021/08/30 06:38:51;;;;;;;6.40;1.05;;;28.50;85.10;;;;;;6156877;23;20017;-76
2021/08/30 06:41:17;;;;;;;2.03;0.80;;;29.80;82.80;;;;;;6157055;23;20005;-77
2021/08/30 06:43:43;;;;;;;3.13;0.80;;;30.80;80.70;;;;;;6156891;23;20001;-78
2021/08/30 06:46:08;;;;;;;1.95;0.73;;;31.60;77.90;;;;;;6157299;23;20328;-75
2021/08/30 06:48:34;;;;;;;6.95;0.90;;;32.10;75.90;;;;;;6156787;23;20046;-75
2021/08/30 06:51:00;;;;;;;0.75;0.75;;;32.40;74.10;;;;;;6156667;23;20004;-76
2021/08/30 06:53:26;;;;;;;1.00;0.65;;;32.80;72.90;;;;;;6156938;23;20056;-77
2021/08/30 06:55:52;;;;;;;1.38;0.85;;;32.80;72.90;;;;;;6156720;23;19997;-75
2021/08/30 06:58:17;;;;;;;1.40;0.60;;;32.20;71.90;;;;;;6157419;23;20013;-76
2021/08/30 07:00:43;;;;;;;0.60;0.50;;;30.70;73.50;;;;;;6156923;23;20084;-75
2021/08/30 07:03:09;;;;;;;1.30;0.50;;;29.50;75.10;;;;;;6156586;23;20089;-76
2021/08/30 07:05:35;;;;;;;1.90;0.80;;;28.50;77.50;;;;;;6156611;23;19994;-75
2021/08/30 07:08:00;;;;;;;2.28;0.75;;;27.50;80.20;;;;;;6156878;23;20080;-76
2021/08/30 07:10:26;;;;;;;1.45;0.77;;;27.00;81.10;;;;;;6156527;23;19997;-77
2021/08/30 07:12:54;;;;;;;1.90;0.43;;;26.20;80.90;;;;;;6156440;23;20002;-75
2021/08/30 07:15:20;;;;;;;1.17;0.50;;;25.70;82.40;;;;;;6155084;23;20310;-76
2021/08/30 07:17:45;;;;;;;2.55;0.63;;;25.30;82.90;;;;;;6156692;23;20016;-75
2021/08/30 07:20:12;;;;;;;0.80;0.68;;;25.40;84.10;;;;;;6156881;23;20040;-75
2021/08/30 07:22:38;;;;;;;3.67;0.80;;;25.80;83.70;;;;;;6156978;23;20357;-77
2021/08/30 07:25:04;;;;;;;1.73;0.70;;;26.00;83.00;;;;;;6156978;23;19997;-78
2021/08/30 07:27:29;;;;;;;5.50;1.00;;;26.00;82.80;;;;;;6156812;23;20001;-75
2021/08/30 07:29:55;;;;;;;4.90;0.60;;;25.80;82.90;;;;;;6154695;23;20063;-75
2021/08/30 07:32:21;;;;;;;1.33;0.50;;;25.40;83.20;;;;;;6155822;23;19998;-76
2021/08/30 07:34:46;;;;;;;0.95;0.60;;;25.10;83.80;;;;;;6155711;23;20012;-77
2021/08/30 07:37:13;;;;;;;0.93;0.60;;;24.80;84.70;;;;;;6156009;23;20093;-75
2021/08/30 07:39:38;;;;;;;4.20;0.60;;;24.60;84.30;;;;;;6155934;23;20068;-76
2021/08/30 07:42:04;;;;;;;1.67;0.63;;;24.40;84.80;;;;;;6155951;23;20077;-78
2021/08/30 07:44:30;;;;;;;1.27;0.70;;;24.10;85.70;;;;;;6155979;23;20073;-75
2021/08/30 07:46:56;;;;;;;2.47;1.05;;;24.00;87.00;;;;;;6155643;23;20025;-76
2021/08/30 07:49:21;;;;;;;2.58;0.80;;;23.80;87.30;;;;;;6155773;23;20028;-78
2021/08/30 07:51:47;;;;;;;8.05;0.80;;;23.80;88.00;;;;;;6156157;23;20033;-77
2021/08/30 07:54:13;;;;;;;4.22;0.73;;;23.70;88.70;;;;;;6156015;23;20393;-78
2021/08/30 07:56:40;;;;;;;7.38;1.00;;;23.70;88.50;;;;;;6155372;23;20072;-77
2021/08/30 07:59:07;;;;;;;7.57;1.33;;;23.50;89.10;;;;;;6154955;23;20084;-77
2021/08/30 08:01:33;;;;;;;3.42;1.00;;;23.40;90.20;;;;;;6155235;23;20454;-77
2021/08/30 08:03:59;;;;;;;2.45;0.80;;;23.30;90.40;;;;;;6155313;23;20008;-78
2021/08/30 08:06:25;;;;;;;7.82;0.90;;;23.50;88.80;;;;;;6153986;23;20009;-78
2021/08/30 08:08:51;;;;;;;4.07;0.70;;;23.90;89.20;;;;;;6154922;23;20109;-78
2021/08/30 08:11:16;;;;;;;1.50;0.65;;;24.10;88.50;;;;;;6155687;23;20442;-77
2021/08/30 08:13:42;;;;;;;9.43;0.80;;;24.20;88.70;;;;;;6155819;23;20068;-76
2021/08/30 08:16:08;;;;;;;0.60;0.60;;;24.40;88.80;;;;;;6156213;23;20006;-78
2021/08/30 08:18:34;;;;;;;10.40;1.27;;;24.70;89.00;;;;;;6155855;23;20336;-79
2021/08/30 08:21:02;;;;;;;3.58;1.13;;;25.00;88.20;;;;;;6156393;23;19997;-76
2021/08/30 08:23:28;;;;;;;2.78;0.82;;;25.20;88.60;;;;;;6155668;23;20428;-78
2021/08/30 08:25:54;;;;;;;7.43;1.17;;;25.30;88.00;;;;;;6156111;23;20025;-76
2021/08/30 08:28:19;;;;;;;2.17;0.90;;;25.20;87.80;;;;;;6155878;23;20028;-76
2021/08/30 08:30:46;;;;;;;8.00;0.93;;;25.20;88.80;;;;;;6155307;23;20001;-77
2021/08/30 08:33:13;;;;;;;13.65;1.40;;;25.20;88.00;;;;;;6155728;23;20077;-76
2021/08/30 08:35:40;;;;;;;13.35;1.15;;;25.20;88.50;;;;;;6155450;23;20001;-77
2021/08/30 08:38:07;;;;;;;7.03;0.93;;;25.10;88.60;;;;;;6155256;23;20045;-76
2021/08/30 08:40:33;;;;;;;10.05;1.05;;;25.00;88.10;;;;;;6129893;23;20032;-76
2021/08/30 08:42:59;;;;;;;6.95;0.80;;;25.00;88.10;;;;;;6155373;23;20036;-78
2021/08/30 08:45:25;;;;;;;5.80;0.93;;;25.00;87.70;;;;;;6155673;23;20001;-76
2021/08/30 08:47:50;;;;;;;6.25;1.20;;;25.10;88.10;;;;;;6155779;23;20013;-79
2021/08/30 08:50:20;;;;;;;2.40;0.57;;;26.10;88.20;;;;;;6155633;23;20025;-73
2021/08/30 08:52:46;;;;;;;2.35;0.80;;;28.00;84.70;;;;;;6155325;23;20080;-75
2021/08/30 08:55:13;;;;;;;1.50;0.70;;;29.10;81.00;;;;;;6155880;23;20365;-75
2021/08/30 08:57:39;;;;;;;4.50;0.45;;;29.20;79.60;;;;;;6155325;23;20001;-75
2021/08/30 09:00:10;;;;;;;1.58;0.65;;;29.20;79.40;;;;;;6155215;23;20024;-74
2021/08/30 09:02:37;;;;;;;1.02;0.60;;;29.10;79.10;;;;;;6155576;23;20409;-75
2021/08/30 09:05:06;;;;;;;1.67;0.82;;;28.80;80.10;;;;;;6155518;23;20036;-75
2021/08/30 09:07:42;;;;;;;5.70;0.90;;;28.50;81.10;;;;;;6155409;23;20417;-76
2021/08/30 09:10:14;;;;;;;0.98;0.63;;;28.30;81.30;;;;;;6155481;23;20088;-77
2021/08/30 09:12:42;;;;;;;;;;;28.30;82.20;;;;;;6156040;23;19998;-78
2021/08/30 09:15:23;;;;;;;2.20;0.82;;;28.20;82.40;;;;;;6155243;23;19905;-76
2021/08/30 09:17:50;;;;;;;2.22;1.05;;;28.30;82.90;;;;;;6155414;23;20083;-79
2021/08/30 09:20:21;;;;;;;0.70;0.68;;;28.60;83.10;;;;;;6155339;23;19998;-77
2021/08/30 09:22:48;;;;;;;1.08;0.80;;;29.20;82.60;;;;;;6155124;23;20006;-75
2021/08/30 09:25:14;;;;;;;0.77;0.75;;;29.40;81.70;;;;;;6155853;23;20001;-75
2021/08/30 09:27:44;;;;;;;2.53;1.02;;;29.60;81.50;;;;;;6155375;23;20105;-76
2021/08/30 09:30:12;;;;;;;3.70;0.60;;;29.70;80.40;;;;;;6155485;23;20457;-75
2021/08/30 09:32:39;;;;;;;7.70;0.93;;;29.70;80.80;;;;;;6155431;23;20013;-76
2021/08/30 09:35:06;;;;;;;4.68;0.80;;;29.70;81.50;;;;;;6154908;23;20062;-76
2021/08/30 09:37:37;;;;;;;3.05;1.05;;;29.70;81.80;;;;;;6155547;23;20005;-75
2021/08/30 09:40:06;;;;;;;5.47;0.70;;;29.20;81.50;;;;;;6155260;23;20028;-76
2021/08/30 09:42:32;;;;;;;0.98;0.52;;;28.60;83.10;;;;;;6155184;23;20005;-75
2021/08/30 09:45:12;;;;;;;1.15;0.75;;;28.10;84.00;;;;;;6154419;23;20005;-76
2021/08/30 09:48:01;;;;;;;3.22;1.00;;;28.10;83.90;;;;;;6128804;23;20072;-75
2021/08/30 09:50:31;;;;;;;1.70;0.70;;;28.20;84.50;;;;;;6154874;23;20004;-78
2021/08/30 09:52:58;;;;;;;3.35;0.80;;;28.30;84.70;;;;;;6154397;23;20006;-76
2021/08/30 09:55:25;;;;;;;4.55;1.10;;;28.10;84.70;;;;;;6155716;23;20057;-74
2021/08/30 09:57:51;;;;;;;4.53;0.80;;;28.00;84.40;;;;;;6156413;23;20029;-75
2021/08/30 10:00:19;;;;;;;3.05;0.88;;;27.80;85.10;;;;;;6125178;23;20018;-75
2021/08/30 10:02:53;;;;;;;1.85;0.93;;;27.60;85.50;;;;;;6126742;23;20005;-76
2021/08/30 10:05:20;;;;;;;3.83;0.98;;;27.50;85.30;;;;;;6126955;23;20436;-76
2021/08/30 10:07:48;;;;;;;2.28;0.73;;;27.30;86.10;;;;;;6126649;23;20463;-74
2021/08/30 10:10:15;;;;;;;475.70;27.60;;;27.10;86.90;;;;;;6126982;23;20010;-77
2021/08/30 10:12:42;;;;;;;70.93;4.10;;;26.80;87.30;;;;;;6126860;23;20073;-77
2021/08/30 10:15:09;;;;;;;15.48;1.38;;;26.60;87.90;;;;;;6125170;23;20022;-75
2021/08/30 10:17:43;;;;;;;7.60;1.23;;;26.50;88.60;;;;;;6126685;23;20037;-75
2021/08/30 10:20:34;;;;;;;3.78;1.23;;;26.40;89.10;;;;;;6126829;23;20010;-74
2021/08/30 10:23:03;;;;;;;0.77;0.65;;;26.60;88.80;;;;;;6126628;23;20056;-73
2021/08/30 10:25:30;;;;;;;8.50;0.90;;;26.40;89.30;;;;;;6126384;23;20429;-75
2021/08/30 10:28:07;;;;;;;3.38;0.73;;;26.30;90.00;;;;;;6127009;23;20373;-75
2021/08/30 10:30:37;;;;;;;3.25;0.70;;;26.30;90.20;;;;;;6127111;23;20002;-74
2021/08/30 10:33:09;;;;;;;7.68;0.90;;;26.40;90.20;;;;;;6127474;23;20002;-73
2021/08/30 10:35:38;;;;;;;2.40;0.63;;;26.30;90.20;;;;;;6127234;23;20033;-74
2021/08/30 10:38:22;;;;;;;0.88;0.60;;;26.30;90.40;;;;;;6127414;23;20018;-75
2021/08/30 10:40:53;;;;;;;0.63;0.63;;;26.20;90.40;;;;;;6127463;23;20002;-76
2021/08/30 10:43:21;;;;;;;2.30;0.80;;;26.00;90.30;;;;;;6127240;23;20077;-78
2021/08/30 10:45:57;;;;;;;3.88;0.57;;;25.70;90.30;;;;;;6126638;23;20009;-78
2021/08/30 10:48:40;;;;;;;9.48;1.45;;;25.60;89.90;;;;;;6126643;23;20447;-76
2021/08/30 10:51:14;;;;;;;1.30;0.63;;;25.60;89.50;;;;;;6127458;23;20006;-75
2021/08/30 10:53:40;;;;;;;2.13;0.55;;;25.60;88.10;;;;;;6126444;23;20002;-77
2021/08/30 10:56:09;;;;;;;0.80;0.50;;;25.40;86.50;;;;;;6127282;23;20307;-76
2021/08/30 10:58:36;;;;;;;2.83;0.60;;;25.40;86.70;;;;;;6126981;23;20475;-76
2021/08/30 11:01:13;;;;;;;1.35;0.82;;;25.20;87.50;;;;;;6147668;23;20017;-76
2021/08/30 11:03:39;;;;;;;1.33;0.60;;;25.30;88.40;;;;;;6157097;23;20006;-75
2021/08/30 11:06:05;;;;;;;5.78;1.00;;;25.20;87.40;;;;;;6156382;23;19997;-76
2021/08/30 11:08:31;;;;;;;4.40;0.80;;;25.10;87.80;;;;;;6156374;23;20036;-77
2021/08/30 11:11:17;;;;;;;2.20;0.50;;;25.10;88.60;;;;;;6155760;23;19997;-76
2021/08/30 11:13:55;;;;;;;3.55;0.60;;;25.00;88.60;;;;;;6155720;23;20360;-78
2021/08/30 11:16:23;;;;;;;0.90;0.70;;;24.90;89.40;;;;;;6156035;23;20084;-77
2021/08/30 11:19:00;;;;;;;0.52;0.52;;;24.70;89.50;;;;;;6129515;23;20337;-77
2021/08/30 11:21:31;;;;;;;2.20;0.57;;;24.70;90.20;;;;;;6129155;23;20060;-77
2021/08/30 11:23:57;;;;;;;3.30;0.70;;;24.70;90.50;;;;;;6155749;23;20012;-77
2021/08/30 11:26:23;;;;;;;1.20;0.77;;;24.80;90.40;;;;;;6155842;23;20325;-77
2021/08/30 11:29:00;;;;;;;3.00;0.95;;;25.00;90.90;;;;;;6155211;23;20148;-76
2021/08/30 11:31:28;;;;;;;1.10;0.90;;;25.10;91.10;;;;;;6155851;23;20002;-77
2021/08/30 11:33:55;;;;;;;5.72;1.30;;;25.10;91.20;;;;;;6156025;23;20025;-79
2021/08/30 11:36:21;;;;;;;2.53;0.73;;;25.10;91.70;;;;;;6155925;23;20005;-77
2021/08/30 11:38:52;;;;;;;1.95;0.73;;;25.10;92.10;;;;;;6156162;23;20483;-78
2021/08/30 11:41:17;;;;;;;0.73;0.50;;;25.30;93.10;;;;;;6156343;23;20005;-78
2021/08/30 11:43:43;;;;;;;5.60;0.90;;;25.40;93.50;;;;;;6129539;23;20071;-77
2021/08/30 11:46:09;;;;;;;0.50;0.50;;;25.50;93.30;;;;;;6156144;23;20098;-78
2021/08/30 11:48:35;;;;;;;0.95;0.88;;;25.50;93.20;;;;;;6156170;23;20405;-76
2021/08/30 11:51:05;;;;;;;3.95;0.55;;;25.70;93.30;;;;;;6156121;23;20005;-76
2021/08/30 11:53:31;;;;;;;1.10;0.50;;;25.90;93.30;;;;;;6156340;23;20024;-77
2021/08/30 11:55:57;;;;;;;1.00;0.60;;;25.90;93.20;;;;;;6156116;23;20509;-77
2021/08/30 11:58:34;;;;;;;0.98;0.50;;;25.90;93.30;;;;;;6156241;23;20041;-77
2021/08/30 12:01:07;;;;;;;4.43;0.68;;;25.90;93.30;;;;;;6156021;23;20337;-77
2021/08/30 12:03:44;;;;;;;3.67;0.90;;;25.90;93.60;;;;;;6156193;23;20081;-78
2021/08/30 12:06:17;;;;;;;4.03;1.20;;;25.90;94.10;;;;;;6154599;23;20052;-78
2021/08/30 12:08:56;;;;;;;1.77;0.60;;;25.90;94.30;;;;;;6155830;23;20002;-78
2021/08/30 12:11:22;;;;;;;1.05;0.80;;;25.90;95.00;;;;;;6130128;23;20324;-78
2021/08/30 12:16:26;;;;;;;2.58;0.70;;;25.80;95.40;;;;;;6156080;23;20080;-78
2021/08/30 12:18:54;;;;;;;1.85;0.80;;;25.70;95.80;;;;;;6129871;23;20021;-78
2021/08/30 12:21:36;;;;;;;5.30;0.95;;;25.60;95.90;;;;;;6155778;23;20005;-81
2021/08/30 12:24:03;;;;;;;2.13;0.90;;;25.60;96.00;;;;;;6156113;23;20005;-77
2021/08/30 12:26:28;;;;;;;1.08;0.60;;;25.60;95.50;;;;;;6156656;23;20471;-78
2021/08/30 12:28:57;;;;;;;1.17;0.70;;;25.70;95.50;;;;;;6155932;23;20006;-79
2021/08/30 12:31:31;;;;;;;4.78;0.90;;;25.70;96.10;;;;;;6155995;23;20002;-77
2021/08/30 12:34:09;;;;;;;1.33;0.90;;;25.60;96.40;;;;;;6129159;23;20009;-76
2021/08/30 12:36:36;;;;;;;1.42;0.70;;;25.70;96.80;;;;;;6155378;23;20015;-78
2021/08/30 12:39:03;;;;;;;0.60;0.60;;;25.80;96.20;;;;;;6155555;23;20084;-77
2021/08/30 12:41:29;;;;;;;4.35;0.90;;;26.00;96.10;;;;;;6129942;23;20005;-77
2021/08/30 12:43:55;;;;;;;8.18;0.65;;;26.00;96.10;;;;;;6155802;23;20002;-77
2021/08/30 12:46:21;;;;;;;0.73;0.50;;;26.10;96.20;;;;;;6156107;23;20077;-78
2021/08/30 12:48:47;;;;;;;2.83;0.70;;;26.30;96.20;;;;;;6156022;23;20005;-78
2021/08/30 12:51:13;;;;;;;1.48;0.70;;;26.40;95.80;;;;;;6129612;23;20002;-78
2021/08/30 12:53:40;;;;;;;3.78;0.68;;;26.50;95.60;;;;;;6155974;23;20006;-79
2021/08/30 12:56:06;;;;;;;1.10;0.55;;;26.50;96.00;;;;;;6155984;23;20027;-79